Time;durP1;ratioP1;P1;durP2;ratioP2;P2;SDS_P1;SDS_P2;PMS_P1;PMS_P2;Temp;Humidity;BMP_temperature;BMP_pressure;BME280_temperature;BME280_humidity;BME280_pressure;Samples;Min_cycle;Max_cycle;Signal;HPM_P1;HPM_P2
2021/08/14 00:00:22;;;;;;;8.50;5.10;;;17.80;99.90;;;;;;2073449;28;20038;-69
2021/08/14 00:01:23;;;;;;;9.27;5.80;;;17.70;99.90;;;;;;2073485;28;20022;-69
2021/08/14 00:02:23;;;;;;;5.97;5.38;;;17.70;99.90;;;;;;2073735;28;20033;-69
2021/08/14 00:03:24;;;;;;;6.90;4.90;;;17.70;99.90;;;;;;2073416;28;20026;-70
2021/08/14 00:04:25;;;;;;;6.88;4.70;;;17.70;99.90;;;;;;2073573;28;20026;-70
2021/08/14 00:05:25;;;;;;;9.48;5.70;;;17.70;99.90;;;;;;2073678;28;20109;-69
2021/08/14 00:06:26;;;;;;;8.88;5.28;;;17.70;99.90;;;;;;2073234;28;20029;-69
2021/08/14 00:07:26;;;;;;;8.40;5.50;;;17.70;99.90;;;;;;2073337;28;20426;-69
2021/08/14 00:08:27;;;;;;;7.90;5.82;;;17.70;99.90;;;;;;2073061;28;20034;-69
2021/08/14 00:09:27;;;;;;;10.15;5.22;;;17.70;99.90;;;;;;2073602;28;20057;-69
2021/08/14 00:10:28;;;;;;;7.35;5.38;;;17.70;99.90;;;;;;2073387;28;20122;-69
2021/08/14 00:11:29;;;;;;;6.68;5.32;;;17.70;99.90;;;;;;2073997;28;20637;-69
2021/08/14 00:12:29;;;;;;;5.78;5.18;;;17.70;99.90;;;;;;2073456;28;20037;-69
2021/08/14 00:13:30;;;;;;;10.10;5.30;;;17.70;99.90;;;;;;2073624;28;20022;-69
2021/08/14 00:14:31;;;;;;;5.95;4.80;;;17.60;99.90;;;;;;2073674;28;20466;-69
2021/08/14 00:15:32;;;;;;;6.75;5.30;;;17.60;99.90;;;;;;2073653;28;20052;-69
2021/08/14 00:16:32;;;;;;;7.15;5.10;;;17.60;99.90;;;;;;2074049;28;20022;-69
2021/08/14 00:17:33;;;;;;;8.30;4.90;;;17.60;99.90;;;;;;2073448;28;20080;-70
2021/08/14 00:18:33;;;;;;;6.22;5.18;;;17.60;99.90;;;;;;2076089;28;20645;-69
2021/08/14 00:19:34;;;;;;;7.50;5.57;;;17.60;99.90;;;;;;2072402;28;20034;-69
2021/08/14 00:20:35;;;;;;;6.35;5.30;;;17.60;99.90;;;;;;2069082;28;20061;-69
2021/08/14 00:21:35;;;;;;;8.00;5.13;;;17.60;99.90;;;;;;2073497;28;20121;-69
2021/08/14 00:22:36;;;;;;;8.77;5.50;;;17.50;99.90;;;;;;2073689;28;20113;-69
2021/08/14 00:23:38;;;;;;;10.45;4.82;;;17.50;99.90;;;;;;2073550;28;20029;-69
2021/08/14 00:24:38;;;;;;;8.13;5.60;;;17.50;99.90;;;;;;2073466;28;20029;-69
2021/08/14 00:25:39;;;;;;;8.02;5.78;;;17.60;99.90;;;;;;2073094;28;20026;-69
2021/08/14 00:26:39;;;;;;;8.18;5.57;;;17.50;99.90;;;;;;2073560;28;20486;-69
2021/08/14 00:27:40;;;;;;;6.70;5.18;;;17.50;99.90;;;;;;2073706;28;20060;-69
2021/08/14 00:28:41;;;;;;;6.57;5.22;;;17.50;99.90;;;;;;2073469;28;20312;-69
2021/08/14 00:29:43;;;;;;;8.23;5.72;;;17.50;99.90;;;;;;2073452;28;20061;-69
2021/08/14 00:30:43;;;;;;;8.50;5.78;;;17.50;99.90;;;;;;2073649;28;20075;-69
2021/08/14 00:31:44;;;;;;;7.85;5.78;;;17.50;99.90;;;;;;2073275;28;20026;-69
2021/08/14 00:32:44;;;;;;;8.43;5.90;;;17.50;99.90;;;;;;2073269;28;20128;-69
2021/08/14 00:33:45;;;;;;;8.75;5.30;;;17.50;99.90;;;;;;2073413;28;20125;-69
2021/08/14 00:34:46;;;;;;;7.78;5.65;;;17.40;99.90;;;;;;2074396;28;20057;-69
2021/08/14 00:35:46;;;;;;;6.45;5.18;;;17.50;99.90;;;;;;2073059;28;20049;-69
2021/08/14 00:36:47;;;;;;;9.13;5.70;;;17.40;99.90;;;;;;2073692;28;20037;-69
2021/08/14 00:37:47;;;;;;;8.07;5.80;;;17.40;99.90;;;;;;2073444;28;20022;-69
2021/08/14 00:38:48;;;;;;;6.93;5.70;;;17.40;99.90;;;;;;2073297;28;20116;-69
2021/08/14 00:39:50;;;;;;;8.65;5.68;;;17.50;99.90;;;;;;2073312;28;20045;-69
2021/08/14 00:40:50;;;;;;;7.32;5.30;;;17.40;99.90;;;;;;2073587;28;20018;-69
2021/08/14 00:41:51;;;;;;;9.20;5.22;;;17.40;99.90;;;;;;2073152;28;20083;-69
2021/08/14 00:42:51;;;;;;;7.13;5.55;;;17.40;99.90;;;;;;2073066;28;20030;-69
2021/08/14 00:43:52;;;;;;;8.57;6.07;;;17.40;99.90;;;;;;2073379;28;20022;-69
2021/08/14 00:44:53;;;;;;;8.18;5.65;;;17.40;99.90;;;;;;2073813;28;20036;-69
2021/08/14 00:45:53;;;;;;;8.45;5.80;;;17.30;99.90;;;;;;2073248;28;20026;-69
2021/08/14 00:46:55;;;;;;;11.45;5.82;;;17.30;99.90;;;;;;2073529;28;20030;-69
2021/08/14 00:47:56;;;;;;;7.80;5.22;;;17.40;99.90;;;;;;2073071;28;20038;-69
2021/08/14 00:48:58;;;;;;;7.80;5.55;;;17.30;99.90;;;;;;2073528;28;20470;-69
2021/08/14 00:49:58;;;;;;;7.95;5.20;;;17.30;99.90;;;;;;2073388;28;20488;-69
2021/08/14 00:50:59;;;;;;;11.35;5.75;;;17.30;99.90;;;;;;2074521;28;20594;-69
2021/08/14 00:52:00;;;;;;;8.60;6.22;;;17.30;99.90;;;;;;2081458;28;20033;-70
2021/08/14 00:53:01;;;;;;;8.13;6.30;;;17.30;99.90;;;;;;2077751;28;20343;-69
2021/08/14 00:54:02;;;;;;;9.23;5.63;;;17.30;99.90;;;;;;2073582;28;20163;-69
2021/08/14 00:55:03;;;;;;;7.85;6.03;;;17.30;99.90;;;;;;2071404;28;20026;-69
2021/08/14 00:56:05;;;;;;;8.23;5.72;;;17.30;99.90;;;;;;2072139;28;20033;-69
2021/08/14 00:57:05;;;;;;;8.20;6.05;;;17.30;99.90;;;;;;2072094;28;20049;-70
2021/08/14 00:58:06;;;;;;;8.02;6.18;;;17.30;99.90;;;;;;2072035;28;20025;-69
2021/08/14 00:59:07;;;;;;;8.48;5.90;;;17.20;99.90;;;;;;2071826;28;20172;-69
2021/08/14 01:00:08;;;;;;;7.78;5.93;;;17.30;99.90;;;;;;2072216;28;20030;-69
2021/08/14 01:01:09;;;;;;;7.22;5.28;;;17.30;99.90;;;;;;2071892;28;20026;-69
2021/08/14 01:02:10;;;;;;;7.82;5.57;;;17.30;99.90;;;;;;2071916;28;20482;-69
2021/08/14 01:03:10;;;;;;;10.23;5.68;;;17.30;99.90;;;;;;2071491;28;20029;-69
2021/08/14 01:04:15;;;;;;;8.30;6.47;;;17.20;99.90;;;;;;2072193;28;20030;-70
2021/08/14 01:05:17;;;;;;;7.07;5.93;;;17.20;99.90;;;;;;2071972;28;20033;-69
2021/08/14 01:06:18;;;;;;;9.45;5.60;;;17.20;99.90;;;;;;2072005;28;20561;-69
2021/08/14 01:07:19;;;;;;;8.57;5.88;;;17.20;99.90;;;;;;2073552;28;20030;-69
2021/08/14 01:08:19;;;;;;;9.32;6.32;;;17.20;99.90;;;;;;2080267;28;20056;-69
2021/08/14 01:09:20;;;;;;;12.73;6.55;;;17.20;99.90;;;;;;2075246;28;20033;-69
2021/08/14 01:10:22;;;;;;;9.52;6.30;;;17.20;99.90;;;;;;2071465;28;20097;-69
2021/08/14 01:11:23;;;;;;;10.65;6.88;;;17.20;99.90;;;;;;2071883;28;20050;-69
2021/08/14 01:12:23;;;;;;;8.98;6.88;;;17.20;99.90;;;;;;2071981;28;20045;-69
2021/08/14 01:13:24;;;;;;;7.53;5.72;;;17.20;99.90;;;;;;2070937;28;20068;-69
2021/08/14 01:14:25;;;;;;;8.70;6.18;;;17.20;99.90;;;;;;2071512;28;20041;-69
2021/08/14 01:15:26;;;;;;;7.18;5.78;;;17.20;99.90;;;;;;2071853;28;20037;-69
2021/08/14 01:16:27;;;;;;;12.18;7.30;;;17.20;99.90;;;;;;2071839;28;20034;-69
2021/08/14 01:17:28;;;;;;;6.97;6.28;;;17.20;99.90;;;;;;2071723;28;20041;-69
2021/08/14 01:18:28;;;;;;;8.13;5.68;;;17.20;99.90;;;;;;2071917;28;20030;-69
2021/08/14 01:19:29;;;;;;;8.85;6.13;;;17.20;99.90;;;;;;2071760;28;20497;-69
2021/08/14 01:20:29;;;;;;;10.45;6.30;;;17.20;99.90;;;;;;2072004;28;20069;-69
2021/08/14 01:21:30;;;;;;;9.68;6.60;;;17.20;99.90;;;;;;2071675;28;20034;-69
2021/08/14 01:22:31;;;;;;;9.52;6.80;;;17.20;99.90;;;;;;2072035;28;20029;-69
2021/08/14 01:23:32;;;;;;;10.65;6.72;;;17.20;99.90;;;;;;2072519;28;20042;-69
2021/08/14 01:24:35;;;;;;;9.65;6.68;;;17.20;99.90;;;;;;2072256;28;20462;-69
2021/08/14 01:25:36;;;;;;;9.88;7.22;;;17.20;99.90;;;;;;2071880;28;20034;-69
2021/08/14 01:26:40;;;;;;;8.30;6.40;;;17.20;99.90;;;;;;2072055;28;20791;-69
2021/08/14 01:27:41;;;;;;;11.57;6.50;;;17.20;99.90;;;;;;2071760;28;20037;-69
2021/08/14 01:28:43;;;;;;;10.55;6.60;;;17.20;99.90;;;;;;2071812;28;20037;-69
2021/08/14 01:29:43;;;;;;;9.60;7.20;;;17.20;99.90;;;;;;2071603;28;20026;-69
2021/08/14 01:30:44;;;;;;;7.93;6.32;;;17.20;99.90;;;;;;2068297;28;20073;-69
2021/08/14 01:31:44;;;;;;;8.98;6.47;;;17.20;99.90;;;;;;2070514;28;20026;-69
2021/08/14 01:32:45;;;;;;;14.10;7.07;;;17.20;99.90;;;;;;2071155;28;20064;-69
2021/08/14 01:33:46;;;;;;;8.98;6.38;;;17.20;99.90;;;;;;2071868;28;20045;-69
2021/08/14 01:34:48;;;;;;;8.15;6.78;;;17.20;99.90;;;;;;2071880;28;20061;-70
2021/08/14 01:35:48;;;;;;;11.05;7.63;;;17.20;99.90;;;;;;2071853;28;20021;-69
2021/08/14 01:36:52;;;;;;;10.77;6.55;;;17.20;99.90;;;;;;2071994;28;20133;-69
2021/08/14 01:37:52;;;;;;;7.97;6.35;;;17.20;99.90;;;;;;2071968;28;20025;-69
2021/08/14 01:38:56;;;;;;;8.05;5.80;;;17.20;99.90;;;;;;2072178;28;20061;-69
2021/08/14 01:39:57;;;;;;;9.20;6.45;;;17.20;99.90;;;;;;2071549;28;20026;-69
2021/08/14 01:40:58;;;;;;;10.45;7.00;;;17.20;99.90;;;;;;2071256;28;20513;-69
2021/08/14 01:42:01;;;;;;;8.07;6.93;;;17.20;99.90;;;;;;2067886;28;20484;-69
2021/08/14 01:43:01;;;;;;;9.35;6.20;;;17.20;99.90;;;;;;2068915;28;20389;-69
2021/08/14 01:44:03;;;;;;;7.60;6.63;;;17.20;99.90;;;;;;2071866;28;20018;-69
2021/08/14 01:45:05;;;;;;;6.72;5.93;;;17.20;99.90;;;;;;2071701;28;20786;-69
2021/08/14 01:46:06;;;;;;;9.02;6.75;;;17.20;99.90;;;;;;2071765;28;20041;-69
2021/08/14 01:47:09;;;;;;;8.18;5.90;;;17.10;99.90;;;;;;2071751;28;20014;-69
2021/08/14 01:48:09;;;;;;;8.60;6.55;;;17.10;99.90;;;;;;2071408;28;20036;-69
2021/08/14 01:49:10;;;;;;;10.27;6.63;;;17.10;99.90;;;;;;2071993;28;20018;-69
2021/08/14 01:50:10;;;;;;;7.68;6.63;;;17.10;99.90;;;;;;2071566;28;20079;-69
2021/08/14 01:51:11;;;;;;;9.30;6.60;;;17.10;99.90;;;;;;2071737;28;20053;-69
2021/08/14 01:52:16;;;;;;;7.82;6.63;;;17.10;99.90;;;;;;2071506;28;20099;-69
2021/08/14 01:53:17;;;;;;;13.93;8.52;;;17.10;99.90;;;;;;2070626;28;20037;-69
2021/08/14 01:54:18;;;;;;;7.63;6.22;;;17.10;99.90;;;;;;2078409;28;20040;-69
2021/08/14 01:55:18;;;;;;;8.30;6.53;;;17.10;99.90;;;;;;2071552;28;20037;-69
2021/08/14 01:56:20;;;;;;;7.70;6.63;;;17.10;99.90;;;;;;2071479;28;20504;-69
2021/08/14 01:57:21;;;;;;;8.10;6.40;;;17.00;99.90;;;;;;2071193;28;20153;-69
2021/08/14 01:58:21;;;;;;;7.00;5.95;;;17.00;99.90;;;;;;2070873;28;20038;-69
2021/08/14 01:59:22;;;;;;;9.23;6.63;;;17.00;99.90;;;;;;2070936;28;20048;-69
2021/08/14 02:00:22;;;;;;;10.18;5.65;;;17.00;99.90;;;;;;2071095;28;20038;-69
2021/08/14 02:01:24;;;;;;;9.45;6.00;;;17.00;99.90;;;;;;2071709;28;20470;-69
2021/08/14 02:02:24;;;;;;;6.60;5.80;;;17.00;99.90;;;;;;2071220;28;20382;-69
2021/08/14 02:03:25;;;;;;;10.20;6.55;;;17.00;99.90;;;;;;2071348;28;20905;-69
2021/08/14 02:04:25;;;;;;;6.65;5.93;;;17.00;99.90;;;;;;2071529;28;20497;-69
2021/08/14 02:05:26;;;;;;;9.10;6.80;;;17.00;99.90;;;;;;2071776;28;20097;-70
2021/08/14 02:06:27;;;;;;;9.25;6.97;;;17.00;99.90;;;;;;2071463;28;20034;-69
2021/08/14 02:07:28;;;;;;;7.95;6.75;;;17.00;99.90;;;;;;2072812;28;20386;-69
2021/08/14 02:08:29;;;;;;;8.77;5.63;;;17.00;99.90;;;;;;2071506;28;20186;-69
2021/08/14 02:09:30;;;;;;;7.90;5.85;;;17.00;99.90;;;;;;2071489;28;20109;-70
2021/08/14 02:10:30;;;;;;;7.57;6.30;;;17.00;99.90;;;;;;2070909;28;20046;-69
2021/08/14 02:11:35;;;;;;;8.88;6.97;;;16.90;99.90;;;;;;2069429;28;20406;-69
2021/08/14 02:12:35;;;;;;;8.88;6.50;;;16.90;99.90;;;;;;2071061;28;20421;-69
2021/08/14 02:13:36;;;;;;;9.38;7.05;;;16.90;99.90;;;;;;2071531;28;20030;-69
2021/08/14 02:14:36;;;;;;;7.90;7.10;;;16.90;99.90;;;;;;2071382;28;20523;-69
2021/08/14 02:15:37;;;;;;;8.40;5.78;;;16.90;99.90;;;;;;2070979;28;20107;-69
2021/08/14 02:16:37;;;;;;;9.15;5.78;;;16.90;99.90;;;;;;2071549;28;20060;-69
2021/08/14 02:17:38;;;;;;;6.93;5.93;;;16.90;99.90;;;;;;2071576;28;20421;-69
2021/08/14 02:18:38;;;;;;;11.32;6.50;;;16.90;99.90;;;;;;2071228;28;20026;-69
2021/08/14 02:19:39;;;;;;;9.02;6.78;;;16.90;99.90;;;;;;2067177;28;20026;-69
2021/08/14 02:20:39;;;;;;;9.32;6.45;;;16.90;99.90;;;;;;2071489;28;20065;-69
2021/08/14 02:21:40;;;;;;;13.30;6.50;;;16.90;99.90;;;;;;2074000;28;20025;-69
2021/08/14 02:22:40;;;;;;;8.82;6.20;;;16.80;99.90;;;;;;2071639;28;20029;-69
2021/08/14 02:23:41;;;;;;;6.15;5.32;;;16.80;99.90;;;;;;2071562;28;20072;-69
2021/08/14 02:24:42;;;;;;;9.35;6.35;;;16.80;99.90;;;;;;2071468;28;20036;-69
2021/08/14 02:25:42;;;;;;;9.90;6.85;;;16.80;99.90;;;;;;2071417;28;20108;-69
2021/08/14 02:26:43;;;;;;;8.65;6.72;;;16.80;99.90;;;;;;2071550;28;20379;-69
2021/08/14 02:27:43;;;;;;;8.93;6.88;;;16.80;99.90;;;;;;2071237;28;20056;-69
2021/08/14 02:28:44;;;;;;;8.10;6.53;;;16.80;99.90;;;;;;2071237;28;20029;-69
2021/08/14 02:29:45;;;;;;;9.57;6.70;;;16.80;99.90;;;;;;2071304;28;20033;-69
2021/08/14 02:30:46;;;;;;;9.27;5.97;;;16.80;99.90;;;;;;2071844;28;20470;-69
2021/08/14 02:31:46;;;;;;;10.15;6.85;;;16.70;99.90;;;;;;2072047;28;20757;-69
2021/08/14 02:32:47;;;;;;;8.32;6.13;;;16.70;99.90;;;;;;2071428;28;20375;-69
2021/08/14 02:33:48;;;;;;;7.10;6.20;;;16.80;99.90;;;;;;2071888;28;20488;-69
2021/08/14 02:34:48;;;;;;;11.40;6.60;;;16.70;99.90;;;;;;2071812;28;20022;-69
2021/08/14 02:35:50;;;;;;;8.07;6.50;;;16.70;99.90;;;;;;2077170;28;20092;-70
2021/08/14 02:36:51;;;;;;;9.40;7.00;;;16.70;99.90;;;;;;2075521;28;20022;-69
2021/08/14 02:37:51;;;;;;;7.35;6.15;;;16.70;99.90;;;;;;2071305;28;20064;-69
2021/08/14 02:38:52;;;;;;;9.27;6.60;;;16.70;99.90;;;;;;2072086;28;20374;-69
2021/08/14 02:39:52;;;;;;;10.20;6.32;;;16.70;99.90;;;;;;2071788;28;20026;-69
2021/08/14 02:40:53;;;;;;;8.63;6.90;;;16.70;99.90;;;;;;2071474;28;20068;-69
2021/08/14 02:41:53;;;;;;;7.60;5.43;;;16.60;99.90;;;;;;2070520;28;20507;-69
2021/08/14 02:42:54;;;;;;;8.85;6.65;;;16.70;99.90;;;;;;2071113;28;20037;-69
2021/08/14 02:43:54;;;;;;;8.05;6.18;;;16.60;99.90;;;;;;2071478;28;20041;-69
2021/08/14 02:44:55;;;;;;;9.88;6.57;;;16.60;99.90;;;;;;2071461;28;20033;-69
2021/08/14 02:45:58;;;;;;;8.75;6.38;;;16.60;99.90;;;;;;2071188;28;20032;-69
2021/08/14 02:46:59;;;;;;;8.27;5.82;;;16.60;99.90;;;;;;2071477;28;20068;-69
2021/08/14 02:48:01;;;;;;;9.13;6.65;;;16.60;99.90;;;;;;2071481;28;20514;-69
2021/08/14 02:49:01;;;;;;;9.45;6.20;;;16.60;99.90;;;;;;2072859;28;20044;-69
2021/08/14 02:50:03;;;;;;;7.65;5.97;;;16.60;99.90;;;;;;2073256;28;20041;-69
2021/08/14 02:51:04;;;;;;;12.80;7.32;;;16.60;99.90;;;;;;2071799;28;20516;-69
2021/08/14 02:52:05;;;;;;;7.13;5.97;;;16.60;99.90;;;;;;2071296;28;20512;-69
2021/08/14 02:53:05;;;;;;;10.40;7.47;;;16.60;99.90;;;;;;2070781;28;20037;-69
2021/08/14 02:54:06;;;;;;;11.65;6.93;;;16.60;99.90;;;;;;2071348;28;20481;-69
2021/08/14 02:55:07;;;;;;;8.90;6.45;;;16.50;99.90;;;;;;2071201;28;20117;-69
2021/08/14 02:56:08;;;;;;;7.43;6.32;;;16.60;99.90;;;;;;2071061;28;20041;-69
2021/08/14 02:57:08;;;;;;;9.75;7.00;;;16.60;99.90;;;;;;2071713;28;20014;-69
2021/08/14 02:58:09;;;;;;;11.27;6.90;;;16.50;99.90;;;;;;2071287;28;20119;-69
2021/08/14 02:59:09;;;;;;;8.75;6.10;;;16.50;99.90;;;;;;2070642;28;20094;-69
2021/08/14 03:00:11;;;;;;;9.07;6.68;;;16.50;99.90;;;;;;2070835;28;20136;-69
2021/08/14 03:01:11;;;;;;;9.30;5.93;;;16.50;99.90;;;;;;2067789;28;20409;-69
2021/08/14 03:02:12;;;;;;;10.27;6.97;;;16.50;99.90;;;;;;2071170;28;20100;-69
2021/08/14 03:03:13;;;;;;;8.35;6.18;;;16.50;99.90;;;;;;2075109;28;20409;-69
2021/08/14 03:04:14;;;;;;;7.63;6.10;;;16.50;99.90;;;;;;2076304;28;20029;-69
2021/08/14 03:05:14;;;;;;;8.07;6.50;;;16.50;99.90;;;;;;2071554;28;20026;-69
2021/08/14 03:06:22;;;;;;;7.38;6.05;;;16.50;99.90;;;;;;2071020;28;20515;-69
2021/08/14 03:07:23;;;;;;;9.25;6.68;;;16.50;99.90;;;;;;2070978;28;20153;-69
2021/08/14 03:08:24;;;;;;;9.25;6.82;;;16.50;99.90;;;;;;2071325;28;20136;-69
2021/08/14 03:09:24;;;;;;;8.45;6.88;;;16.50;99.90;;;;;;2071152;28;20030;-69
2021/08/14 03:10:25;;;;;;;11.52;7.22;;;16.40;99.90;;;;;;2071603;28;20034;-69
2021/08/14 03:11:26;;;;;;;7.55;6.53;;;16.40;99.90;;;;;;2071348;28;20597;-69
2021/08/14 03:12:27;;;;;;;8.52;7.05;;;16.40;99.90;;;;;;2071422;28;20447;-69
2021/08/14 03:13:27;;;;;;;8.85;6.97;;;16.40;99.90;;;;;;2071017;28;20034;-69
2021/08/14 03:14:28;;;;;;;9.23;6.47;;;16.40;99.90;;;;;;2071154;28;20049;-69
2021/08/14 03:15:28;;;;;;;10.38;7.20;;;16.40;99.90;;;;;;2071065;28;20406;-69
2021/08/14 03:16:29;;;;;;;8.68;6.82;;;16.40;99.90;;;;;;2070757;28;20111;-69
2021/08/14 03:17:30;;;;;;;8.90;6.95;;;16.40;99.90;;;;;;2073598;28;20038;-69
2021/08/14 03:18:30;;;;;;;8.15;6.82;;;16.30;99.90;;;;;;2062647;28;20030;-71
2021/08/14 03:19:32;;;;;;;7.95;6.45;;;16.40;99.90;;;;;;2070920;28;20041;-69
2021/08/14 03:20:33;;;;;;;9.82;6.53;;;16.30;99.90;;;;;;2071289;28;20029;-69
2021/08/14 03:21:33;;;;;;;8.15;6.60;;;16.30;99.90;;;;;;2070902;28;20060;-69
2021/08/14 03:22:34;;;;;;;8.63;6.05;;;16.30;99.90;;;;;;2070835;28;20104;-69
2021/08/14 03:23:35;;;;;;;7.65;6.13;;;16.30;99.90;;;;;;2070875;28;20102;-69
2021/08/14 03:24:36;;;;;;;9.13;6.10;;;16.30;99.90;;;;;;2071526;28;20037;-69
2021/08/14 03:25:37;;;;;;;7.80;5.97;;;16.30;99.90;;;;;;2071294;28;20030;-69
2021/08/14 03:26:37;;;;;;;6.85;6.03;;;16.30;99.90;;;;;;2071331;28;20060;-69
2021/08/14 03:27:38;;;;;;;7.82;6.35;;;16.30;99.90;;;;;;2070684;28;20123;-70
2021/08/14 03:28:38;;;;;;;9.02;6.70;;;16.30;99.90;;;;;;2071366;28;20030;-69
2021/08/14 03:29:39;;;;;;;10.07;7.68;;;16.30;99.90;;;;;;2071169;28;20029;-69
2021/08/14 03:30:39;;;;;;;8.02;6.80;;;16.30;99.90;;;;;;2074220;28;20511;-69
2021/08/14 03:31:40;;;;;;;8.82;7.10;;;16.30;99.90;;;;;;2070397;28;20098;-69
2021/08/14 03:32:41;;;;;;;8.95;6.75;;;16.20;99.90;;;;;;2071004;28;20152;-69
2021/08/14 03:33:41;;;;;;;17.00;8.60;;;16.30;99.90;;;;;;2070937;28;20041;-69
2021/08/14 03:34:42;;;;;;;9.20;7.28;;;16.30;99.90;;;;;;2071273;28;20030;-69
2021/08/14 03:35:42;;;;;;;9.60;6.93;;;16.30;99.90;;;;;;2071207;28;20041;-69
2021/08/14 03:36:43;;;;;;;10.43;7.55;;;16.30;99.90;;;;;;2071165;28;20040;-69
2021/08/14 03:37:43;;;;;;;8.32;6.57;;;16.30;99.90;;;;;;2071129;28;20030;-69
2021/08/14 03:38:44;;;;;;;13.68;8.00;;;16.20;99.90;;;;;;2071034;28;20442;-69
2021/08/14 03:39:44;;;;;;;9.57;7.22;;;16.30;99.90;;;;;;2070916;28;20041;-69
2021/08/14 03:40:45;;;;;;;9.77;7.95;;;16.30;99.90;;;;;;2070867;28;20034;-70
2021/08/14 03:41:46;;;;;;;11.18;7.63;;;16.30;99.90;;;;;;2070611;28;20109;-69
2021/08/14 03:42:46;;;;;;;10.95;7.38;;;16.20;99.90;;;;;;2070740;28;20021;-69
2021/08/14 03:43:47;;;;;;;11.85;8.25;;;16.30;99.90;;;;;;2071258;28;20049;-69
2021/08/14 03:44:47;;;;;;;11.82;7.75;;;16.30;99.90;;;;;;2070888;28;20133;-69
2021/08/14 03:45:48;;;;;;;11.75;7.57;;;16.20;99.90;;;;;;2071064;28;20096;-69
2021/08/14 03:46:48;;;;;;;10.05;8.40;;;16.20;99.90;;;;;;2070868;28;20041;-69
2021/08/14 03:47:49;;;;;;;9.07;6.85;;;16.20;99.90;;;;;;2071255;28;20058;-69
2021/08/14 03:48:49;;;;;;;8.93;6.85;;;16.20;99.90;;;;;;2071133;28;20070;-69
2021/08/14 03:49:50;;;;;;;12.68;7.38;;;16.20;99.90;;;;;;2070997;28;20493;-69
2021/08/14 03:50:50;;;;;;;9.02;7.30;;;16.30;99.90;;;;;;2072914;28;20108;-69
2021/08/14 03:51:51;;;;;;;10.55;7.38;;;16.30;99.90;;;;;;2071113;28;20057;-69
2021/08/14 03:52:52;;;;;;;11.73;7.53;;;16.30;99.90;;;;;;2070692;28;20030;-69
2021/08/14 03:53:52;;;;;;;11.90;8.85;;;16.20;99.90;;;;;;2071041;28;20064;-69
2021/08/14 03:54:53;;;;;;;11.50;7.88;;;16.20;99.90;;;;;;2070795;28;20028;-69
2021/08/14 03:55:53;;;;;;;10.18;8.43;;;16.30;99.90;;;;;;2071072;28;20022;-69
2021/08/14 03:56:56;;;;;;;11.05;7.47;;;16.30;99.90;;;;;;2070887;28;20030;-69
2021/08/14 03:57:57;;;;;;;9.68;7.35;;;16.20;99.90;;;;;;2071085;28;20556;-69
2021/08/14 03:58:58;;;;;;;13.38;8.13;;;16.20;99.90;;;;;;2071080;28;20026;-69
2021/08/14 03:59:58;;;;;;;12.77;9.23;;;16.20;99.90;;;;;;2070823;28;20034;-69
2021/08/14 04:00:59;;;;;;;9.43;7.70;;;16.20;99.90;;;;;;2070994;28;20109;-69
2021/08/14 04:02:00;;;;;;;9.27;7.30;;;16.20;99.90;;;;;;2070980;28;20029;-69
2021/08/14 04:03:00;;;;;;;9.15;7.00;;;16.20;99.90;;;;;;2070339;28;20026;-70
2021/08/14 04:04:01;;;;;;;13.70;8.50;;;16.20;99.90;;;;;;2070134;28;20030;-69
2021/08/14 04:05:02;;;;;;;11.95;8.88;;;16.20;99.90;;;;;;2070492;28;20069;-69
2021/08/14 04:06:02;;;;;;;8.02;7.05;;;16.20;99.90;;;;;;2066848;28;20018;-69
2021/08/14 04:07:03;;;;;;;11.45;8.70;;;16.20;99.90;;;;;;2071032;28;20014;-69
2021/08/14 04:08:04;;;;;;;13.15;8.13;;;16.20;99.90;;;;;;2070341;28;20026;-69
2021/08/14 04:09:04;;;;;;;11.90;8.55;;;16.20;99.90;;;;;;2070249;28;20391;-69
2021/08/14 04:10:05;;;;;;;8.45;7.47;;;16.20;99.90;;;;;;2075166;28;20033;-69
2021/08/14 04:11:07;;;;;;;10.02;7.85;;;16.20;99.90;;;;;;2073698;28;20217;-69
2021/08/14 04:12:08;;;;;;;10.02;7.45;;;16.20;99.90;;;;;;2071054;28;20026;-69
2021/08/14 04:13:08;;;;;;;12.27;9.05;;;16.20;99.90;;;;;;2069880;28;20474;-69
2021/08/14 04:14:10;;;;;;;9.90;7.68;;;16.20;99.90;;;;;;2070051;28;20037;-70
2021/08/14 04:15:11;;;;;;;9.05;8.07;;;16.20;99.90;;;;;;2071025;28;20026;-69
2021/08/14 04:16:11;;;;;;;10.70;7.68;;;16.20;99.90;;;;;;2070716;28;20112;-69
2021/08/14 04:17:12;;;;;;;11.60;8.23;;;16.20;99.90;;;;;;2071115;28;20080;-70
2021/08/14 04:18:12;;;;;;;10.68;8.23;;;16.20;99.90;;;;;;2070067;28;20018;-69
2021/08/14 04:19:13;;;;;;;13.45;8.55;;;16.20;99.90;;;;;;2070450;28;20101;-69
2021/08/14 04:20:14;;;;;;;11.43;7.65;;;16.20;99.90;;;;;;2069791;28;20102;-69
2021/08/14 04:21:14;;;;;;;8.57;7.20;;;16.20;99.90;;;;;;2070711;28;20076;-69
2021/08/14 04:22:15;;;;;;;9.48;8.27;;;16.20;99.90;;;;;;2070905;28;20356;-69
2021/08/14 04:23:15;;;;;;;9.60;8.38;;;16.10;99.90;;;;;;2070642;28;20030;-69
2021/08/14 04:24:16;;;;;;;10.20;7.80;;;16.10;99.90;;;;;;2071447;28;20064;-69
2021/08/14 04:25:17;;;;;;;10.65;8.25;;;16.10;99.90;;;;;;2070956;28;20173;-70
2021/08/14 04:26:17;;;;;;;10.43;8.75;;;16.10;99.90;;;;;;2070672;28;20032;-69
2021/08/14 04:27:18;;;;;;;12.43;7.90;;;16.10;99.90;;;;;;2070662;28;20470;-69
2021/08/14 04:28:18;;;;;;;9.98;7.93;;;16.10;99.90;;;;;;2071167;28;20034;-69
2021/08/14 04:29:19;;;;;;;14.15;8.70;;;16.10;99.90;;;;;;2071216;28;20060;-69
2021/08/14 04:30:20;;;;;;;13.25;7.97;;;16.10;99.90;;;;;;2071017;28;20029;-69
2021/08/14 04:31:20;;;;;;;8.23;7.40;;;16.10;99.90;;;;;;2072664;28;20063;-69
2021/08/14 04:32:21;;;;;;;8.70;7.45;;;16.10;99.90;;;;;;2072246;28;20037;-69
2021/08/14 04:33:21;;;;;;;8.90;7.97;;;16.00;99.90;;;;;;2071911;28;20030;-69
2021/08/14 04:34:22;;;;;;;11.18;8.40;;;16.10;99.90;;;;;;2072516;28;20115;-69
2021/08/14 04:35:22;;;;;;;11.00;7.78;;;16.10;99.90;;;;;;2072527;28;20034;-70
2021/08/14 04:36:23;;;;;;;11.18;8.43;;;16.10;99.90;;;;;;2072298;28;20038;-69
2021/08/14 04:37:23;;;;;;;11.65;7.90;;;16.10;99.90;;;;;;2074829;28;20049;-70
2021/08/14 04:38:24;;;;;;;10.27;7.95;;;16.00;99.90;;;;;;2072480;28;20812;-70
2021/08/14 04:39:24;;;;;;;14.15;9.02;;;16.10;99.90;;;;;;2072143;28;20030;-70
2021/08/14 04:40:25;;;;;;;11.30;8.40;;;16.00;99.90;;;;;;2072216;28;20068;-69
2021/08/14 04:41:25;;;;;;;9.45;7.40;;;16.00;99.90;;;;;;2072220;28;20029;-69
2021/08/14 04:42:26;;;;;;;9.73;6.95;;;16.00;99.90;;;;;;2072289;28;20018;-69
2021/08/14 04:43:27;;;;;;;10.95;8.27;;;16.00;99.90;;;;;;2075177;28;20022;-69
2021/08/14 04:44:27;;;;;;;12.13;8.90;;;16.00;99.90;;;;;;2080308;28;20025;-69
2021/08/14 04:45:28;;;;;;;9.68;7.68;;;16.00;99.90;;;;;;2072718;28;20564;-69
2021/08/14 04:46:28;;;;;;;9.45;7.53;;;16.00;99.90;;;;;;2072684;28;20022;-69
2021/08/14 04:47:29;;;;;;;10.45;8.20;;;16.00;99.90;;;;;;2072428;28;20101;-69
2021/08/14 04:48:30;;;;;;;9.77;7.97;;;16.00;99.90;;;;;;2072222;28;20026;-69
2021/08/14 04:49:31;;;;;;;9.15;7.72;;;16.00;99.90;;;;;;2072025;28;20022;-69
2021/08/14 04:50:31;;;;;;;9.50;7.38;;;16.00;99.90;;;;;;2072764;28;20904;-70
2021/08/14 04:51:32;;;;;;;9.20;7.68;;;16.00;99.90;;;;;;2072256;28;20100;-69
2021/08/14 04:52:32;;;;;;;9.73;8.00;;;16.00;99.90;;;;;;2072336;28;20053;-69
2021/08/14 04:53:33;;;;;;;9.27;8.30;;;16.00;99.90;;;;;;2071957;28;20712;-69
2021/08/14 04:54:34;;;;;;;10.52;7.80;;;16.00;99.90;;;;;;2072156;28;20034;-69
2021/08/14 04:55:35;;;;;;;11.48;8.35;;;16.00;99.90;;;;;;2072408;28;20072;-70
2021/08/14 04:56:35;;;;;;;10.52;8.10;;;16.00;99.90;;;;;;2072245;28;20104;-69
2021/08/14 04:57:36;;;;;;;9.70;8.13;;;16.00;99.90;;;;;;2072360;28;20030;-69
2021/08/14 04:58:36;;;;;;;11.18;9.18;;;16.00;99.90;;;;;;2072364;28;20030;-69
2021/08/14 04:59:37;;;;;;;10.30;7.60;;;16.00;99.90;;;;;;2071812;28;20033;-69
2021/08/14 05:00:37;;;;;;;10.48;8.07;;;16.00;99.90;;;;;;2072482;28;20382;-69
2021/08/14 05:01:38;;;;;;;9.63;7.60;;;16.00;99.90;;;;;;2072021;28;20030;-69
2021/08/14 05:02:38;;;;;;;9.13;7.60;;;16.00;99.90;;;;;;2071697;28;20117;-69
2021/08/14 05:03:39;;;;;;;10.77;7.63;;;16.00;99.90;;;;;;2078895;28;20907;-69
2021/08/14 05:04:39;;;;;;;12.73;8.50;;;16.00;99.90;;;;;;2074602;28;20034;-69
2021/08/14 05:05:42;;;;;;;9.55;7.30;;;16.00;99.90;;;;;;2071973;28;20030;-69
2021/08/14 05:06:42;;;;;;;13.38;8.50;;;16.00;99.90;;;;;;2072321;28;20028;-69
2021/08/14 05:07:43;;;;;;;15.93;8.20;;;16.00;99.90;;;;;;2071822;28;20025;-69
2021/08/14 05:08:43;;;;;;;9.65;7.85;;;16.00;99.90;;;;;;2072168;28;20033;-69
2021/08/14 05:09:44;;;;;;;9.70;7.57;;;16.00;99.90;;;;;;2071878;28;20037;-69
2021/08/14 05:10:44;;;;;;;8.75;7.60;;;16.10;99.90;;;;;;2072169;28;20034;-70
2021/08/14 05:11:45;;;;;;;12.45;9.23;;;16.00;99.90;;;;;;2071939;28;20544;-69
2021/08/14 05:12:45;;;;;;;10.88;8.65;;;16.10;99.90;;;;;;2071917;28;20057;-69
2021/08/14 05:13:46;;;;;;;13.05;9.13;;;16.10;99.90;;;;;;2071969;28;20030;-69
2021/08/14 05:14:46;;;;;;;11.50;7.75;;;16.10;99.90;;;;;;2072273;28;20061;-69